DAOB

Bou Chekif Airport

Tiaret, Algeria
METAR DAOB 170700Z 18004KT 9999 FEW020 M01/M02 Q1024
Observed Flight Rules
Dec-17 @ 07:00 UTC (an hour ago) Visual Flight Rules
Wind Visibility Clouds
180° at 4 knots 10,000+ meters
  • Few at 2,000' AGL
Temperatures Readings
Current -1°C / 30°F
Dewpoint -2°C / 28°F
Humidity 93%
Altimeter 30.24" Hg
Pressure 1024 hPa
Elevation 989
METAR DAOB 170700Z 18004KT 9999 FEW020 M01/M02 Q1024
Observed Flight Rules
Dec-17 @ 07:00 UTC
(an hour ago)
VFR
Wind Visibility
180° at 4 knots 10,000+ meters
Clouds
  • Few at 2,000' AGL
Temperature Dewpoint
-1°C / 30°F -2°C / 28°F
Humidity Altimeter Pressure
93% 30.24" Hg 1024 hPa